Time;durP1;ratioP1;P1;durP2;ratioP2;P2;SDS_P1;SDS_P2;PMS_P1;PMS_P2;Temp;Humidity;BMP_temperature;BMP_pressure;BME280_temperature;BME280_humidity;BME280_pressure;Samples;Min_cycle;Max_cycle;Signal;HPM_P1;HPM_P2
2022/06/07 11:18:54;;;;;;;;;;;;;;;20.01;47.35;100052.94;6252452;22;1085;-92
2022/06/07 11:21:36;;;;;;;;;;;;;;;19.81;47.86;100068.66;6223908;23;1972;-91
2022/06/07 11:24:06;;;;;;;;;;;;;;;19.64;47.98;100057.84;6250354;23;991;-92
2022/06/07 11:26:55;;;;;;;;;;;;;;;19.94;46.57;100052.72;6222175;23;1186;-91
2022/06/07 11:29:22;;;;;;;;;;;;;;;20.18;45.25;100040.69;6206624;23;1275;-91
2022/06/07 11:31:48;;;;;;;;;;;;;;;20.10;45.74;100053.56;6223610;23;1235;-91
2022/06/07 11:34:24;;;;;;;;;;;;;;;20.02;46.35;100047.03;6222182;23;1429;-91
2022/06/07 11:36:50;;;;;;;;;;;;;;;19.91;49.20;100045.91;6222570;22;1250;-92
2022/06/07 11:39:22;;;;;;;;;;;;;;;19.93;47.70;100051.91;6222984;23;1908;-92
2022/06/07 11:41:48;;;;;;;;;;;;;;;19.98;45.40;100042.53;6247840;23;1360;-93
2022/06/07 11:44:17;;;;;;;;;;;;;;;20.12;48.67;100044.88;6223220;23;1238;-92
2022/06/07 11:46:45;;;;;;;;;;;;;;;20.17;47.23;100056.53;6248601;22;1352;-91
2022/06/07 11:49:23;;;;;;;;;;;;;;;20.28;46.57;100056.84;6248253;23;1468;-91
2022/06/07 11:51:55;;;;;;;;;;;;;;;20.34;46.98;100049.88;6249131;23;1374;-92
2022/06/07 11:54:25;;;;;;;;;;;;;;;20.28;46.38;100054.88;6222838;23;1275;-90
2022/06/07 11:56:51;;;;;;;;;;;;;;;20.22;48.06;100061.06;6222382;22;1487;-92
2022/06/07 11:59:16;;;;;;;;;;;;;;;20.51;47.66;100057.88;6249374;23;1876;-91
2022/06/07 12:01:45;;;;;;;;;;;;;;;20.38;45.27;100061.91;6248582;23;1027;-92
2022/06/07 12:04:28;;;;;;;;;;;;;;;20.47;46.97;100048.66;6223083;23;1393;-91
2022/06/07 12:06:57;;;;;;;;;;;;;;;20.43;47.89;100047.75;6248223;22;1217;-92
2022/06/07 12:09:22;;;;;;;;;;;;;;;20.46;49.59;100052.59;6222112;23;1460;-92
2022/06/07 12:11:47;;;;;;;;;;;;;;;20.60;46.98;100043.81;6222102;23;1291;-91
2022/06/07 12:14:18;;;;;;;;;;;;;;;21.17;48.12;100039.63;6222810;23;1171;-92
2022/06/07 12:16:51;;;;;;;;;;;;;;;21.23;46.43;100043.78;6247172;22;1326;-91
2022/06/07 12:19:24;;;;;;;;;;;;;;;20.73;45.49;100053.69;6222861;23;1869;-91
2022/06/07 12:21:57;;;;;;;;;;;;;;;20.74;47.27;100050.56;6222522;23;1167;-92
2022/06/07 12:24:23;;;;;;;;;;;;;;;21.22;44.68;100042.16;6222759;23;1278;-91
2022/06/07 12:26:50;;;;;;;;;;;;;;;21.40;46.32;100033.03;6222274;22;1226;-91
2022/06/07 12:29:29;;;;;;;;;;;;;;;21.25;46.30;100033.09;6223062;23;1289;-92
2022/06/07 12:31:56;;;;;;;;;;;;;;;21.05;46.57;100038.56;6222556;23;1319;-91
2022/06/07 12:34:23;;;;;;;;;;;;;;;20.70;46.48;100035.72;6222358;23;1369;-91
2022/06/07 12:36:53;;;;;;;;;;;;;;;20.57;48.01;100037.00;6222491;22;1276;-92
2022/06/07 12:39:18;;;;;;;;;;;;;;;20.67;47.57;100038.44;6221986;23;1888;-91
2022/06/07 12:41:46;;;;;;;;;;;;;;;21.04;48.82;100033.34;6222875;23;1322;-92
2022/06/07 12:44:19;;;;;;;;;;;;;;;21.28;48.38;100041.50;6222215;23;1275;-92
2022/06/07 12:46:46;;;;;;;;;;;;;;;21.17;47.21;100028.50;6222328;22;1277;-91
2022/06/07 12:49:25;;;;;;;;;;;;;;;21.34;48.25;100034.50;6222562;23;1246;-92
2022/06/07 12:52:01;;;;;;;;;;;;;;;21.19;46.29;100031.72;6222551;23;1174;-92
2022/06/07 12:54:35;;;;;;;;;;;;;;;21.28;47.87;100013.66;6222743;23;1684;-92
2022/06/07 12:57:13;;;;;;;;;;;;;;;21.30;45.63;100016.91;6222636;23;1305;-91
2022/06/07 12:59:40;;;;;;;;;;;;;;;21.21;45.70;100021.06;6222954;23;1943;-92
2022/06/07 13:02:14;;;;;;;;;;;;;;;21.72;48.13;100022.56;6222967;23;1376;-91
2022/06/07 13:04:46;;;;;;;;;;;;;;;21.83;44.02;100022.78;6222626;23;1304;-91
2022/06/07 13:07:17;;;;;;;;;;;;;;;22.13;43.41;100025.78;6221887;23;1315;-92
2022/06/07 13:09:45;;;;;;;;;;;;;;;22.22;44.77;100010.44;6248191;23;1191;-92
2022/06/07 13:12:15;;;;;;;;;;;;;;;21.96;43.30;100007.50;6222830;23;1326;-91
2022/06/07 13:14:43;;;;;;;;;;;;;;;22.31;42.62;100007.41;6222539;23;1219;-92
2022/06/07 13:17:26;;;;;;;;;;;;;;;22.36;42.63;100001.53;6222588;23;1346;-91
2022/06/07 13:19:51;;;;;;;;;;;;;;;22.31;43.43;100012.16;6222450;23;1892;-92
2022/06/07 13:22:16;;;;;;;;;;;;;;;22.96;43.24;100005.34;6222431;23;1378;-91
2022/06/07 13:24:43;;;;;;;;;;;;;;;23.19;42.61;99998.88;6222174;23;1397;-92
2022/06/07 13:27:24;;;;;;;;;;;;;;;22.87;41.63;100004.78;6221900;23;1281;-92
2022/06/07 13:29:53;;;;;;;;;;;;;;;26.09;36.21;99994.16;6222452;23;1322;-91
2022/06/07 13:32:29;;;;;;;;;;;;;;;29.68;30.76;99994.06;6222105;23;1286;-91
2022/06/07 13:35:01;;;;;;;;;;;;;;;31.37;28.39;99984.09;6220813;23;1342;-92
2022/06/07 13:37:28;;;;;;;;;;;;;;;32.29;25.88;99987.00;6221970;23;1345;-93
2022/06/07 13:40:06;;;;;;;;;;;;;;;31.69;25.50;99980.66;6221169;23;1888;-92
2022/06/07 13:42:33;;;;;;;;;;;;;;;32.72;25.82;99983.16;6248037;23;931;-92
2022/06/07 13:45:01;;;;;;;;;;;;;;;29.61;28.56;99980.81;6221009;23;1259;-91
2022/06/07 13:47:35;;;;;;;;;;;;;;;28.58;32.32;99983.88;6221141;23;1309;-92
2022/06/07 13:53:30;;;;;;;;;;;;;;;27.05;34.59;99989.44;6248327;23;596;-92
2022/06/07 13:56:04;;;;;;;;;;;;;;;24.91;36.55;99983.56;6246980;23;1299;-92
2022/06/07 13:58:31;;;;;;;;;;;;;;;24.81;39.07;99971.09;6247089;23;1269;-92
2022/06/07 14:00:58;;;;;;;;;;;;;;;27.77;34.63;99986.00;6221081;23;1932;-92
2022/06/07 14:03:35;;;;;;;;;;;;;;;29.73;32.50;99971.00;6221036;23;1248;-91
2022/06/07 14:06:01;;;;;;;;;;;;;;;31.62;28.39;99963.81;6221635;23;1215;-90
2022/06/07 14:08:32;;;;;;;;;;;;;;;28.91;30.62;99973.97;6221727;23;1349;-89
2022/06/07 14:10:57;;;;;;;;;;;;;;;28.24;32.53;99972.50;6221476;23;1247;-89
2022/06/07 14:13:23;;;;;;;;;;;;;;;27.70;34.21;99979.59;6221864;23;1246;-90
2022/06/07 14:15:50;;;;;;;;;;;;;;;25.40;37.04;99977.47;6221714;23;1384;-89
2022/06/07 14:18:16;;;;;;;;;;;;;;;23.69;40.73;99984.41;6222144;23;1380;-90
2022/06/07 14:20:42;;;;;;;;;;;;;;;23.49;42.59;99977.34;6222807;23;1936;-90
2022/06/07 14:23:14;;;;;;;;;;;;;;;23.40;42.91;99974.00;6221962;23;1356;-91
2022/06/07 14:25:39;;;;;;;;;;;;;;;23.20;43.22;99969.78;6222165;23;1333;-89
2022/06/07 14:28:06;;;;;;;;;;;;;;;22.86;44.22;99975.28;6222198;23;1277;-90
2022/06/07 14:30:31;;;;;;;;;;;;;;;22.90;43.92;99983.69;6222479;23;1352;-90
2022/06/07 14:32:58;;;;;;;;;;;;;;;22.88;43.53;99975.69;6221563;23;1308;-91
2022/06/07 14:35:24;;;;;;;;;;;;;;;22.42;43.79;99974.13;6221782;23;1218;-91
2022/06/07 14:37:54;;;;;;;;;;;;;;;22.35;43.42;99982.38;6221507;23;1333;-92
2022/06/07 14:40:25;;;;;;;;;;;;;;;22.29;43.73;99973.50;6221843;23;1912;-92
2022/06/07 14:42:50;;;;;;;;;;;;;;;22.58;44.52;99981.19;6221737;23;1207;-92
2022/06/07 14:45:16;;;;;;;;;;;;;;;23.12;43.17;99984.81;6220930;23;1542;-92
2022/06/07 14:47:43;;;;;;;;;;;;;;;23.32;42.99;99975.91;6219319;23;1319;-91
2022/06/07 14:50:17;;;;;;;;;;;;;;;22.90;43.30;99981.69;6221204;23;1222;-93
2022/06/07 14:52:46;;;;;;;;;;;;;;;22.55;44.59;99975.53;6221763;23;1258;-92
2022/06/07 14:55:12;;;;;;;;;;;;;;;22.33;46.21;99981.94;6221170;23;1306;-91
2022/06/07 14:57:42;;;;;;;;;;;;;;;22.14;46.71;99991.97;6221664;23;1425;-91
2022/06/07 15:00:08;;;;;;;;;;;;;;;21.90;47.88;99983.91;6221367;23;1928;-92
2022/06/07 15:02:35;;;;;;;;;;;;;;;21.80;47.10;99993.69;6220488;23;1477;-91
2022/06/07 15:05:03;;;;;;;;;;;;;;;21.41;46.55;99992.88;6221790;23;1175;-92
2022/06/07 15:07:30;;;;;;;;;;;;;;;22.02;45.27;100002.50;6221255;23;1293;-92
2022/06/07 15:09:56;;;;;;;;;;;;;;;22.16;45.79;99992.41;6221102;23;1378;-91
2022/06/07 15:12:22;;;;;;;;;;;;;;;22.37;46.17;99994.75;6220996;23;1273;-91
2022/06/07 15:14:47;;;;;;;;;;;;;;;22.49;44.87;100007.72;6220241;23;1366;-92
2022/06/07 15:17:14;;;;;;;;;;;;;;;22.38;46.95;99992.75;6220206;23;1254;-92
2022/06/07 15:19:39;;;;;;;;;;;;;;;22.09;47.89;100003.44;6220425;23;1922;-91
2022/06/07 15:22:05;;;;;;;;;;;;;;;21.96;46.81;100010.28;6221531;23;1187;-91
2022/06/07 15:24:30;;;;;;;;;;;;;;;21.65;47.04;100002.94;6221014;23;1263;-92
2022/06/07 15:26:55;;;;;;;;;;;;;;;21.62;47.90;100008.41;6221497;22;1273;-92
2022/06/07 15:29:49;;;;;;;;;;;;;;;21.58;48.09;100005.56;6221260;23;1381;-92
2022/06/07 15:32:18;;;;;;;;;;;;;;;21.33;48.63;99999.47;6247508;23;1011;-91
2022/06/07 15:34:44;;;;;;;;;;;;;;;21.53;49.19;99998.28;6246937;23;1279;-92
2022/06/07 15:37:09;;;;;;;;;;;;;;;21.28;48.46;99994.19;6220328;23;1274;-92
2022/06/07 15:39:34;;;;;;;;;;;;;;;21.40;48.84;99996.03;6220867;23;1884;-92
2022/06/07 15:44:44;;;;;;;;;;;;;;;21.91;48.07;99996.66;6247782;23;633;-92
2022/06/07 15:47:10;;;;;;;;;;;;;;;21.83;48.43;100000.50;6220587;23;1420;-92
2022/06/07 15:49:35;;;;;;;;;;;;;;;22.15;46.59;99990.78;6220714;23;1296;-92
2022/06/07 15:52:00;;;;;;;;;;;;;;;22.41;45.82;99987.25;6220734;23;1191;-92
2022/06/07 15:54:25;;;;;;;;;;;;;;;22.41;46.86;99992.84;6220078;23;1345;-92
2022/06/07 15:56:51;;;;;;;;;;;;;;;22.17;45.91;99994.00;6220231;22;1189;-91
2022/06/07 15:59:16;;;;;;;;;;;;;;;21.95;46.28;99996.75;6220468;23;1923;-92
2022/06/07 16:01:41;;;;;;;;;;;;;;;21.62;47.46;100000.06;6220568;23;1004;-92
2022/06/07 16:04:08;;;;;;;;;;;;;;;21.82;48.52;99993.31;6221494;23;1250;-90
2022/06/07 16:06:34;;;;;;;;;;;;;;;22.07;48.24;99989.03;6222922;23;1298;-90
2022/06/07 16:09:00;;;;;;;;;;;;;;;22.08;48.07;99995.44;6221305;23;1281;-92
2022/06/07 16:11:26;;;;;;;;;;;;;;;22.07;47.33;99996.59;6222416;23;1456;-91
2022/06/07 16:13:56;;;;;;;;;;;;;;;21.46;49.60;99997.34;6221418;23;1469;-91
2022/06/07 16:16:24;;;;;;;;;;;;;;;21.26;50.03;99998.50;6222141;23;1279;-91
2022/06/07 16:18:49;;;;;;;;;;;;;;;21.51;49.86;99994.28;6220820;23;1326;-91
2022/06/07 16:21:15;;;;;;;;;;;;;;;21.51;49.02;99995.09;6221384;23;1888;-92
2022/06/07 16:23:42;;;;;;;;;;;;;;;21.68;48.61;99988.28;6242843;23;1352;-91
2022/06/07 16:26:07;;;;;;;;;;;;;;;21.86;48.34;99992.19;6222225;23;1318;-91
2022/06/07 16:34:23;;;;;;;;;;;;;;;;;;;;;
2022/06/07 16:37:05;;;;;;;;;;;;;;;21.43;50.48;100015.59;6243658;22;1230;-91
2022/06/07 16:39:34;;;;;;;;;;;;;;;21.17;50.71;100017.38;6221796;23;1888;-91
2022/06/07 16:42:02;;;;;;;;;;;;;;;21.24;51.23;100011.97;6221187;23;1397;-92
2022/06/07 16:44:29;;;;;;;;;;;;;;;21.03;50.86;100001.94;6221025;23;1453;-92
2022/06/07 16:46:56;;;;;;;;;;;;;;;21.42;50.59;100002.84;6221226;22;1202;-92
2022/06/07 16:49:22;;;;;;;;;;;;;;;21.52;50.88;100007.03;6222338;23;1385;-92
2022/06/07 16:51:49;;;;;;;;;;;;;;;21.48;50.88;100006.16;6222105;23;1195;-93
2022/06/07 16:54:20;;;;;;;;;;;;;;;21.40;50.58;100005.19;6221942;23;1289;-90
2022/06/07 16:56:46;;;;;;;;;;;;;;;21.62;51.12;100009.22;6222880;22;1317;-91
2022/06/07 16:59:11;;;;;;;;;;;;;;;21.53;51.37;100008.63;6247347;23;967;-91
2022/06/07 17:01:39;;;;;;;;;;;;;;;21.48;51.41;100004.16;6221348;23;1926;-92
2022/06/07 17:04:37;;;;;;;;;;;;;;;21.40;52.16;100007.16;6221551;23;1320;-92
2022/06/07 17:07:02;;;;;;;;;;;;;;;21.08;52.71;100006.44;6156332;23;1221;-92
2022/06/07 17:09:27;;;;;;;;;;;;;;;21.09;52.93;100003.28;6220474;23;1179;-92
2022/06/07 17:11:52;;;;;;;;;;;;;;;21.13;54.05;100000.56;6221009;23;996;-91
2022/06/07 17:14:23;;;;;;;;;;;;;;;21.14;52.86;99999.41;6220994;23;1338;-92
2022/06/07 17:16:48;;;;;;;;;;;;;;;21.23;54.00;99994.47;6219971;22;1365;-91
2022/06/07 17:19:15;;;;;;;;;;;;;;;21.18;53.48;100008.66;6221337;23;1265;-92
2022/06/07 17:21:41;;;;;;;;;;;;;;;21.31;52.53;100001.81;6221554;23;1912;-92
2022/06/07 17:24:07;;;;;;;;;;;;;;;21.16;53.02;100002.63;6221163;23;1324;-92
2022/06/07 17:26:32;;;;;;;;;;;;;;;21.37;54.68;100002.31;6219712;23;1323;-92
2022/06/07 17:28:58;;;;;;;;;;;;;;;21.52;55.47;100002.25;6220085;23;1326;-93
2022/06/07 17:31:23;;;;;;;;;;;;;;;21.41;55.71;100003.22;6248343;23;775;-92
2022/06/07 17:33:48;;;;;;;;;;;;;;;20.86;56.11;100001.53;6221868;23;1250;-92
2022/06/07 17:36:15;;;;;;;;;;;;;;;21.00;56.85;99999.91;6248651;23;821;-92
2022/06/07 17:38:41;;;;;;;;;;;;;;;21.27;56.70;100003.69;6222531;23;1312;-91
2022/06/07 17:41:07;;;;;;;;;;;;;;;21.26;55.83;99995.72;6220838;23;1877;-92
2022/06/07 17:43:35;;;;;;;;;;;;;;;21.09;56.89;100005.28;6221133;23;1220;-92
2022/06/07 17:46:01;;;;;;;;;;;;;;;21.01;55.04;100003.50;6220194;23;1361;-93
2022/06/07 17:48:27;;;;;;;;;;;;;;;21.11;56.62;100014.84;6220866;23;1413;-92
2022/06/07 17:50:53;;;;;;;;;;;;;;;20.66;57.19;100014.56;6221260;23;1271;-92
2022/06/07 17:53:19;;;;;;;;;;;;;;;20.82;57.84;100017.34;6221282;23;1111;-92
2022/06/07 17:55:45;;;;;;;;;;;;;;;20.84;57.33;100020.56;6221476;23;1211;-92
2022/06/07 17:58:10;;;;;;;;;;;;;;;20.55;57.35;100028.22;6220729;23;1367;-93
2022/06/07 18:00:36;;;;;;;;;;;;;;;20.66;56.80;100009.81;6247159;23;2290;-92
2022/06/07 18:03:03;;;;;;;;;;;;;;;20.69;57.33;100017.44;6220587;23;1425;-92
2022/06/07 18:05:31;;;;;;;;;;;;;;;20.56;57.44;100018.69;6219215;23;1349;-92
2022/06/07 18:08:02;;;;;;;;;;;;;;;20.48;58.30;100016.91;6221405;23;1287;-92
2022/06/07 18:10:29;;;;;;;;;;;;;;;20.17;57.54;100014.06;6221348;23;1187;-92
2022/06/07 18:12:55;;;;;;;;;;;;;;;20.21;57.45;100024.13;6220922;23;1205;-92
2022/06/07 18:15:32;;;;;;;;;;;;;;;20.08;57.72;100017.00;6221905;23;1295;-93
2022/06/07 18:17:57;;;;;;;;;;;;;;;20.02;57.65;100018.44;6220938;23;1210;-92
2022/06/07 18:20:24;;;;;;;;;;;;;;;20.22;57.88;100014.63;6220940;23;1881;-92
2022/06/07 18:22:50;;;;;;;;;;;;;;;20.26;57.83;100018.28;6220609;23;1252;-92
2022/06/07 18:25:18;;;;;;;;;;;;;;;20.20;58.18;100014.16;6219942;23;1286;-91
2022/06/07 18:27:43;;;;;;;;;;;;;;;20.08;59.11;100021.75;6221170;23;1176;-92
2022/06/07 18:30:10;;;;;;;;;;;;;;;20.30;58.43;100021.16;6221203;23;1289;-92
2022/06/07 18:32:36;;;;;;;;;;;;;;;20.26;58.37;100012.72;6221180;23;1199;-92
2022/06/07 18:35:07;;;;;;;;;;;;;;;20.36;58.27;100012.22;6248212;23;846;-92
2022/06/07 18:37:32;;;;;;;;;;;;;;;20.46;57.95;100010.91;6221528;23;1244;-92
2022/06/07 18:39:57;;;;;;;;;;;;;;;20.24;58.10;100014.25;6221034;23;1926;-92
2022/06/07 18:42:22;;;;;;;;;;;;;;;20.29;58.33;100006.47;6220980;23;1155;-92
2022/06/07 18:44:47;;;;;;;;;;;;;;;20.35;58.77;100009.81;6221120;23;1272;-93
2022/06/07 18:47:15;;;;;;;;;;;;;;;20.32;59.13;100002.97;6221369;23;1249;-92
2022/06/07 18:49:41;;;;;;;;;;;;;;;20.28;59.40;100009.59;6220984;23;1408;-93
2022/06/07 18:52:09;;;;;;;;;;;;;;;20.15;59.02;100016.41;6220784;23;1166;-92
2022/06/07 18:54:35;;;;;;;;;;;;;;;20.05;59.58;100008.59;6220970;23;1214;-92
2022/06/07 18:57:00;;;;;;;;;;;;;;;20.14;59.19;100015.59;6220765;22;1338;-92
2022/06/07 18:59:25;;;;;;;;;;;;;;;20.01;59.57;100023.16;6221301;23;1897;-93
2022/06/07 19:01:51;;;;;;;;;;;;;;;19.81;60.42;100028.97;6221925;23;1268;-93
2022/06/07 19:04:34;;;;;;;;;;;;;;;19.50;60.68;100030.44;6221211;23;1389;-92
2022/06/07 19:07:05;;;;;;;;;;;;;;;19.53;61.48;100034.50;6218735;22;1392;-92
2022/06/07 19:09:30;;;;;;;;;;;;;;;19.64;61.03;100032.84;6220875;23;1413;-93
2022/06/07 19:12:01;;;;;;;;;;;;;;;19.54;62.30;100045.25;6220661;23;1360;-93
2022/06/07 19:14:26;;;;;;;;;;;;;;;19.35;62.26;100041.44;6220275;23;1223;-92
2022/06/07 19:16:51;;;;;;;;;;;;;;;19.42;63.02;100041.66;6220227;22;1261;-92
2022/06/07 19:19:19;;;;;;;;;;;;;;;19.39;62.43;100053.47;6220820;23;1163;-92
2022/06/07 19:21:47;;;;;;;;;;;;;;;19.34;63.10;100045.38;6220713;23;1876;-92
2022/06/07 19:24:12;;;;;;;;;;;;;;;19.31;62.79;100043.31;6246912;23;849;-93
2022/06/07 19:26:40;;;;;;;;;;;;;;;19.21;62.40;100050.97;6220611;23;1454;-92
2022/06/07 19:29:05;;;;;;;;;;;;;;;19.32;63.46;100044.91;6247681;23;901;-93
2022/06/07 19:31:30;;;;;;;;;;;;;;;19.32;62.51;100048.50;6221006;23;1318;-92
2022/06/07 19:33:56;;;;;;;;;;;;;;;19.03;64.07;100048.78;6220792;23;1246;-93
2022/06/07 19:36:21;;;;;;;;;;;;;;;18.82;65.07;100054.44;6220566;23;1217;-93
2022/06/07 19:38:47;;;;;;;;;;;;;;;18.77;66.46;100043.59;6222026;23;1167;-92
2022/06/07 19:41:12;;;;;;;;;;;;;;;18.34;66.46;100039.34;6222766;23;1920;-92
2022/06/07 19:43:40;;;;;;;;;;;;;;;18.27;67.53;100046.59;6222666;23;1205;-92
2022/06/07 19:46:06;;;;;;;;;;;;;;;18.37;66.69;100043.41;6222738;23;1318;-92
2022/06/07 19:48:31;;;;;;;;;;;;;;;18.07;67.40;100049.09;6222444;23;1294;-92
2022/06/07 19:50:58;;;;;;;;;;;;;;;18.15;67.55;100041.84;6222486;23;1292;-92
2022/06/07 19:53:25;;;;;;;;;;;;;;;18.03;67.47;100037.06;6222104;23;1146;-92
2022/06/07 19:55:50;;;;;;;;;;;;;;;17.97;68.40;100041.19;6222566;23;1257;-92
2022/06/07 19:58:23;;;;;;;;;;;;;;;18.01;68.24;100047.69;6222308;23;1323;-93
2022/06/07 20:00:49;;;;;;;;;;;;;;;18.07;68.28;100049.09;6222243;23;1928;-93
2022/06/07 20:03:14;;;;;;;;;;;;;;;18.07;67.05;100040.78;6223414;23;1316;-93
2022/06/07 20:05:49;;;;;;;;;;;;;;;17.81;68.09;100039.41;6222621;23;1021;-93
2022/06/07 20:08:28;;;;;;;;;;;;;;;;;;;;;
2022/06/07 20:11:13;;;;;;;;;;;;;;;17.53;69.87;100036.34;6237883;23;1421;-93
2022/06/07 20:13:38;;;;;;;;;;;;;;;17.30;70.33;100038.66;6224556;23;1266;-93
2022/06/07 20:16:04;;;;;;;;;;;;;;;17.46;69.61;100033.31;6250340;23;1008;-93
2022/06/07 20:18:29;;;;;;;;;;;;;;;17.46;68.89;100034.13;6223327;23;1385;-93
2022/06/07 20:20:56;;;;;;;;;;;;;;;17.39;69.06;100033.88;6223122;23;1922;-93
2022/06/07 20:23:21;;;;;;;;;;;;;;;17.31;69.08;100037.50;6222795;23;1084;-93
2022/06/07 20:25:47;;;;;;;;;;;;;;;16.80;69.57;100041.41;6222662;23;1199;-93
2022/06/07 20:28:13;;;;;;;;;;;;;;;16.34;71.14;100034.72;6222206;23;1196;-93
2022/06/07 20:30:38;;;;;;;;;;;;;;;16.51;72.95;100034.66;6222159;23;1321;-94
2022/06/07 20:33:03;;;;;;;;;;;;;;;16.48;70.80;100037.31;6222465;23;1350;-93
2022/06/07 20:35:29;;;;;;;;;;;;;;;16.33;73.61;100048.91;6221916;23;1097;-92
2022/06/07 20:37:55;;;;;;;;;;;;;;;16.75;72.19;100044.38;6222647;23;1202;-93
2022/06/07 20:40:26;;;;;;;;;;;;;;;16.83;72.05;100036.03;6223786;23;1858;-92
2022/06/07 20:42:51;;;;;;;;;;;;;;;16.64;72.49;100039.22;6221870;23;1187;-92
